sensor_id;sensor_type;location;lat;lon;timestamp;temperature;humidity
11666;DHT22;5889;51.350;6.708;2023-07-31T00:02:03;17.50;99.90
11666;DHT22;5889;51.350;6.708;2023-07-31T00:04:30;17.50;99.90
11666;DHT22;5889;51.350;6.708;2023-07-31T00:06:56;17.50;99.90
11666;DHT22;5889;51.350;6.708;2023-07-31T00:09:25;17.50;99.90
11666;DHT22;5889;51.350;6.708;2023-07-31T00:11:52;17.50;99.90
11666;DHT22;5889;51.350;6.708;2023-07-31T00:14:19;17.50;99.90
11666;DHT22;5889;51.350;6.708;2023-07-31T00:16:46;17.60;99.90
11666;DHT22;5889;51.350;6.708;2023-07-31T00:19:12;17.50;99.90
11666;DHT22;5889;51.350;6.708;2023-07-31T00:21:39;17.50;99.90
11666;DHT22;5889;51.350;6.708;2023-07-31T00:24:06;17.50;99.90
11666;DHT22;5889;51.350;6.708;2023-07-31T00:26:35;17.50;99.90
11666;DHT22;5889;51.350;6.708;2023-07-31T00:29:02;17.50;99.90
11666;DHT22;5889;51.350;6.708;2023-07-31T00:31:29;17.50;99.90
11666;DHT22;5889;51.350;6.708;2023-07-31T00:33:56;17.50;99.90
11666;DHT22;5889;51.350;6.708;2023-07-31T00:36:23;17.50;99.90
11666;DHT22;5889;51.350;6.708;2023-07-31T00:38:50;17.50;99.90
11666;DHT22;5889;51.350;6.708;2023-07-31T00:41:17;17.60;99.90
11666;DHT22;5889;51.350;6.708;2023-07-31T00:43:45;17.60;99.90
11666;DHT22;5889;51.350;6.708;2023-07-31T00:46:12;17.60;99.90
11666;DHT22;5889;51.350;6.708;2023-07-31T00:48:39;17.60;99.90
11666;DHT22;5889;51.350;6.708;2023-07-31T00:51:07;17.60;99.90
11666;DHT22;5889;51.350;6.708;2023-07-31T00:53:35;17.50;99.90
11666;DHT22;5889;51.350;6.708;2023-07-31T00:56:03;17.60;99.90
11666;DHT22;5889;51.350;6.708;2023-07-31T00:58:30;17.60;99.90
11666;DHT22;5889;51.350;6.708;2023-07-31T01:00:59;17.60;99.90
11666;DHT22;5889;51.350;6.708;2023-07-31T01:03:26;17.60;99.90
11666;DHT22;5889;51.350;6.708;2023-07-31T01:06:03;17.60;99.90
11666;DHT22;5889;51.350;6.708;2023-07-31T01:08:37;17.60;99.90
11666;DHT22;5889;51.350;6.708;2023-07-31T01:11:11;17.60;99.90
11666;DHT22;5889;51.350;6.708;2023-07-31T01:13:41;17.60;99.90
11666;DHT22;5889;51.350;6.708;2023-07-31T01:16:10;17.60;99.90
11666;DHT22;5889;51.350;6.708;2023-07-31T01:18:37;17.60;99.90
11666;DHT22;5889;51.350;6.708;2023-07-31T01:21:21;17.60;99.90
11666;DHT22;5889;51.350;6.708;2023-07-31T01:24:12;17.60;99.90
11666;DHT22;5889;51.350;6.708;2023-07-31T01:26:49;17.60;99.90
11666;DHT22;5889;51.350;6.708;2023-07-31T01:29:20;17.60;99.90
11666;DHT22;5889;51.350;6.708;2023-07-31T01:31:53;17.60;99.90
11666;DHT22;5889;51.350;6.708;2023-07-31T01:34:22;17.50;99.90
11666;DHT22;5889;51.350;6.708;2023-07-31T01:36:50;17.60;99.90
11666;DHT22;5889;51.350;6.708;2023-07-31T01:39:16;17.50;99.90
11666;DHT22;5889;51.350;6.708;2023-07-31T01:41:43;17.60;99.90
11666;DHT22;5889;51.350;6.708;2023-07-31T01:44:12;17.60;99.90
11666;DHT22;5889;51.350;6.708;2023-07-31T01:46:39;17.50;99.90
11666;DHT22;5889;51.350;6.708;2023-07-31T01:49:06;17.50;99.90
11666;DHT22;5889;51.350;6.708;2023-07-31T01:51:32;17.50;99.90
11666;DHT22;5889;51.350;6.708;2023-07-31T01:54:00;17.50;99.90
11666;DHT22;5889;51.350;6.708;2023-07-31T01:56:27;17.50;99.90
11666;DHT22;5889;51.350;6.708;2023-07-31T01:58:54;17.50;99.90
11666;DHT22;5889;51.350;6.708;2023-07-31T02:01:22;17.50;99.90
11666;DHT22;5889;51.350;6.708;2023-07-31T02:03:49;17.50;99.90
11666;DHT22;5889;51.350;6.708;2023-07-31T02:06:16;17.50;99.90
11666;DHT22;5889;51.350;6.708;2023-07-31T02:08:43;17.50;99.90
11666;DHT22;5889;51.350;6.708;2023-07-31T02:11:10;17.50;99.90
11666;DHT22;5889;51.350;6.708;2023-07-31T02:13:37;17.50;99.90
11666;DHT22;5889;51.350;6.708;2023-07-31T02:16:04;17.50;99.90
11666;DHT22;5889;51.350;6.708;2023-07-31T02:18:32;17.50;99.90
11666;DHT22;5889;51.350;6.708;2023-07-31T02:20:59;17.60;99.90
11666;DHT22;5889;51.350;6.708;2023-07-31T02:23:26;17.60;99.90
11666;DHT22;5889;51.350;6.708;2023-07-31T02:25:53;17.50;99.90
11666;DHT22;5889;51.350;6.708;2023-07-31T02:28:20;17.50;99.90
11666;DHT22;5889;51.350;6.708;2023-07-31T02:30:47;17.50;99.90
11666;DHT22;5889;51.350;6.708;2023-07-31T02:33:15;17.60;99.90
11666;DHT22;5889;51.350;6.708;2023-07-31T02:35:43;17.60;99.90
11666;DHT22;5889;51.350;6.708;2023-07-31T02:38:10;17.60;99.90
11666;DHT22;5889;51.350;6.708;2023-07-31T02:40:37;17.60;99.90
11666;DHT22;5889;51.350;6.708;2023-07-31T02:43:05;17.60;99.90
11666;DHT22;5889;51.350;6.708;2023-07-31T02:45:32;17.50;99.90
11666;DHT22;5889;51.350;6.708;2023-07-31T02:47:59;17.60;99.90
11666;DHT22;5889;51.350;6.708;2023-07-31T02:50:26;17.60;99.90
11666;DHT22;5889;51.350;6.708;2023-07-31T02:52:55;17.60;99.90
11666;DHT22;5889;51.350;6.708;2023-07-31T02:55:22;17.60;99.90
11666;DHT22;5889;51.350;6.708;2023-07-31T02:57:49;17.60;99.90
11666;DHT22;5889;51.350;6.708;2023-07-31T03:00:18;17.60;99.90
11666;DHT22;5889;51.350;6.708;2023-07-31T03:02:45;17.60;99.90
11666;DHT22;5889;51.350;6.708;2023-07-31T03:05:11;17.60;99.90
11666;DHT22;5889;51.350;6.708;2023-07-31T03:07:38;17.60;99.90
11666;DHT22;5889;51.350;6.708;2023-07-31T03:10:08;17.60;99.90
11666;DHT22;5889;51.350;6.708;2023-07-31T03:12:35;17.60;99.90
11666;DHT22;5889;51.350;6.708;2023-07-31T03:15:02;17.70;99.90
11666;DHT22;5889;51.350;6.708;2023-07-31T03:17:29;17.70;99.90
11666;DHT22;5889;51.350;6.708;2023-07-31T03:19:56;17.70;99.90
11666;DHT22;5889;51.350;6.708;2023-07-31T03:22:23;17.70;99.90
11666;DHT22;5889;51.350;6.708;2023-07-31T03:24:50;17.70;99.90
11666;DHT22;5889;51.350;6.708;2023-07-31T03:27:18;17.70;99.90
11666;DHT22;5889;51.350;6.708;2023-07-31T03:29:45;17.70;99.90
11666;DHT22;5889;51.350;6.708;2023-07-31T03:32:12;17.70;99.90
11666;DHT22;5889;51.350;6.708;2023-07-31T03:34:39;17.80;99.90
11666;DHT22;5889;51.350;6.708;2023-07-31T03:37:06;17.80;99.90
11666;DHT22;5889;51.350;6.708;2023-07-31T03:39:34;17.80;99.90
11666;DHT22;5889;51.350;6.708;2023-07-31T03:42:01;17.80;99.90
11666;DHT22;5889;51.350;6.708;2023-07-31T03:44:30;17.80;99.90
11666;DHT22;5889;51.350;6.708;2023-07-31T03:46:57;17.80;99.90
11666;DHT22;5889;51.350;6.708;2023-07-31T03:49:24;17.80;99.90
11666;DHT22;5889;51.350;6.708;2023-07-31T03:51:51;17.80;99.90
11666;DHT22;5889;51.350;6.708;2023-07-31T03:54:18;17.90;99.90
11666;DHT22;5889;51.350;6.708;2023-07-31T03:56:45;17.90;99.90
11666;DHT22;5889;51.350;6.708;2023-07-31T03:59:11;17.90;99.90
11666;DHT22;5889;51.350;6.708;2023-07-31T04:01:40;17.90;99.90
11666;DHT22;5889;51.350;6.708;2023-07-31T04:04:07;17.90;99.90
11666;DHT22;5889;51.350;6.708;2023-07-31T04:06:34;18.00;99.90
11666;DHT22;5889;51.350;6.708;2023-07-31T04:09:01;17.90;99.90
11666;DHT22;5889;51.350;6.708;2023-07-31T04:11:28;18.00;99.90
11666;DHT22;5889;51.350;6.708;2023-07-31T04:13:55;18.00;99.90
11666;DHT22;5889;51.350;6.708;2023-07-31T04:16:22;18.00;99.90
11666;DHT22;5889;51.350;6.708;2023-07-31T04:18:50;18.00;99.90
11666;DHT22;5889;51.350;6.708;2023-07-31T04:21:17;18.00;99.90
11666;DHT22;5889;51.350;6.708;2023-07-31T04:23:44;18.00;99.90
11666;DHT22;5889;51.350;6.708;2023-07-31T04:26:11;18.00;99.90
11666;DHT22;5889;51.350;6.708;2023-07-31T04:28:38;18.00;99.90
11666;DHT22;5889;51.350;6.708;2023-07-31T04:31:05;18.00;99.90
11666;DHT22;5889;51.350;6.708;2023-07-31T04:33:32;18.00;99.90
11666;DHT22;5889;51.350;6.708;2023-07-31T04:36:00;18.00;99.90
11666;DHT22;5889;51.350;6.708;2023-07-31T04:38:27;18.00;99.90
11666;DHT22;5889;51.350;6.708;2023-07-31T04:40:54;18.00;99.90
11666;DHT22;5889;51.350;6.708;2023-07-31T04:43:21;18.00;99.90
11666;DHT22;5889;51.350;6.708;2023-07-31T04:45:48;18.00;99.90
11666;DHT22;5889;51.350;6.708;2023-07-31T04:48:15;18.00;99.90
11666;DHT22;5889;51.350;6.708;2023-07-31T04:50:42;18.00;99.90
11666;DHT22;5889;51.350;6.708;2023-07-31T04:53:11;18.00;99.90
11666;DHT22;5889;51.350;6.708;2023-07-31T04:55:38;18.00;99.90
11666;DHT22;5889;51.350;6.708;2023-07-31T04:58:05;18.10;99.90
11666;DHT22;5889;51.350;6.708;2023-07-31T05:00:32;18.10;99.90
11666;DHT22;5889;51.350;6.708;2023-07-31T05:02:59;18.10;99.90
11666;DHT22;5889;51.350;6.708;2023-07-31T05:05:26;18.10;99.90
11666;DHT22;5889;51.350;6.708;2023-07-31T05:07:53;18.20;99.90
11666;DHT22;5889;51.350;6.708;2023-07-31T05:10:21;18.20;99.90
11666;DHT22;5889;51.350;6.708;2023-07-31T05:12:48;18.30;99.90
11666;DHT22;5889;51.350;6.708;2023-07-31T05:15:15;18.30;99.90
11666;DHT22;5889;51.350;6.708;2023-07-31T05:17:42;18.30;99.90
11666;DHT22;5889;51.350;6.708;2023-07-31T05:20:09;18.30;99.90
11666;DHT22;5889;51.350;6.708;2023-07-31T05:22:36;18.30;99.90
11666;DHT22;5889;51.350;6.708;2023-07-31T05:25:04;18.30;99.90
11666;DHT22;5889;51.350;6.708;2023-07-31T05:27:32;18.30;99.90
11666;DHT22;5889;51.350;6.708;2023-07-31T05:30:03;18.30;99.90
11666;DHT22;5889;51.350;6.708;2023-07-31T05:32:30;18.30;99.90
11666;DHT22;5889;51.350;6.708;2023-07-31T05:34:57;18.30;99.90
11666;DHT22;5889;51.350;6.708;2023-07-31T05:37:24;18.30;99.90
11666;DHT22;5889;51.350;6.708;2023-07-31T05:39:51;18.30;99.90
11666;DHT22;5889;51.350;6.708;2023-07-31T05:42:21;18.30;99.90
11666;DHT22;5889;51.350;6.708;2023-07-31T05:44:49;18.30;99.90
11666;DHT22;5889;51.350;6.708;2023-07-31T05:47:19;18.30;99.90
11666;DHT22;5889;51.350;6.708;2023-07-31T05:49:48;18.30;99.90
11666;DHT22;5889;51.350;6.708;2023-07-31T05:52:18;18.30;99.90
11666;DHT22;5889;51.350;6.708;2023-07-31T05:54:45;18.30;99.90
11666;DHT22;5889;51.350;6.708;2023-07-31T05:57:12;18.40;99.90
11666;DHT22;5889;51.350;6.708;2023-07-31T05:59:39;18.40;99.90
11666;DHT22;5889;51.350;6.708;2023-07-31T06:02:08;18.40;99.90
11666;DHT22;5889;51.350;6.708;2023-07-31T06:04:35;18.40;99.90
11666;DHT22;5889;51.350;6.708;2023-07-31T06:07:02;18.40;99.90
11666;DHT22;5889;51.350;6.708;2023-07-31T06:09:29;18.40;99.90
11666;DHT22;5889;51.350;6.708;2023-07-31T06:11:56;18.40;99.90
11666;DHT22;5889;51.350;6.708;2023-07-31T06:14:23;18.40;99.90
11666;DHT22;5889;51.350;6.708;2023-07-31T06:16:50;18.40;99.90
11666;DHT22;5889;51.350;6.708;2023-07-31T06:19:18;18.40;99.90
11666;DHT22;5889;51.350;6.708;2023-07-31T06:21:45;18.30;99.90
11666;DHT22;5889;51.350;6.708;2023-07-31T06:24:12;18.30;99.90
11666;DHT22;5889;51.350;6.708;2023-07-31T06:26:44;18.20;99.90
11666;DHT22;5889;51.350;6.708;2023-07-31T06:29:11;18.20;99.90
11666;DHT22;5889;51.350;6.708;2023-07-31T06:31:38;18.20;99.90
11666;DHT22;5889;51.350;6.708;2023-07-31T06:34:05;18.20;99.90
11666;DHT22;5889;51.350;6.708;2023-07-31T06:36:33;18.20;99.90
11666;DHT22;5889;51.350;6.708;2023-07-31T06:39:00;18.10;99.90
11666;DHT22;5889;51.350;6.708;2023-07-31T06:41:27;18.10;99.90
11666;DHT22;5889;51.350;6.708;2023-07-31T06:43:54;18.10;99.90
11666;DHT22;5889;51.350;6.708;2023-07-31T06:46:21;18.10;99.90
11666;DHT22;5889;51.350;6.708;2023-07-31T06:48:48;18.10;99.90
11666;DHT22;5889;51.350;6.708;2023-07-31T06:51:16;18.10;99.90
11666;DHT22;5889;51.350;6.708;2023-07-31T06:53:44;18.10;99.90
11666;DHT22;5889;51.350;6.708;2023-07-31T06:56:11;18.10;99.90
11666;DHT22;5889;51.350;6.708;2023-07-31T06:58:39;18.10;99.90
11666;DHT22;5889;51.350;6.708;2023-07-31T07:01:06;18.10;99.90
11666;DHT22;5889;51.350;6.708;2023-07-31T07:03:33;18.10;99.90
11666;DHT22;5889;51.350;6.708;2023-07-31T07:06:00;18.10;99.90
11666;DHT22;5889;51.350;6.708;2023-07-31T07:08:27;18.10;99.90
11666;DHT22;5889;51.350;6.708;2023-07-31T07:10:55;18.00;99.90
11666;DHT22;5889;51.350;6.708;2023-07-31T07:13:22;18.00;99.90
11666;DHT22;5889;51.350;6.708;2023-07-31T07:15:50;18.00;99.90
11666;DHT22;5889;51.350;6.708;2023-07-31T07:18:17;18.00;99.90
11666;DHT22;5889;51.350;6.708;2023-07-31T07:20:46;17.90;99.90
11666;DHT22;5889;51.350;6.708;2023-07-31T07:23:14;17.90;99.90
11666;DHT22;5889;51.350;6.708;2023-07-31T07:25:42;17.90;99.90
11666;DHT22;5889;51.350;6.708;2023-07-31T07:28:10;17.90;99.90
11666;DHT22;5889;51.350;6.708;2023-07-31T07:30:37;17.90;99.90
11666;DHT22;5889;51.350;6.708;2023-07-31T07:33:05;17.90;99.90
11666;DHT22;5889;51.350;6.708;2023-07-31T07:35:33;17.90;99.90
11666;DHT22;5889;51.350;6.708;2023-07-31T07:38:01;17.90;99.90
11666;DHT22;5889;51.350;6.708;2023-07-31T07:40:28;17.90;99.90
11666;DHT22;5889;51.350;6.708;2023-07-31T07:42:55;17.90;99.90
11666;DHT22;5889;51.350;6.708;2023-07-31T07:45:23;17.90;99.90
11666;DHT22;5889;51.350;6.708;2023-07-31T07:47:50;17.90;99.90
11666;DHT22;5889;51.350;6.708;2023-07-31T07:50:17;17.80;99.90
11666;DHT22;5889;51.350;6.708;2023-07-31T07:52:44;17.80;99.90
11666;DHT22;5889;51.350;6.708;2023-07-31T07:55:11;17.90;99.90
11666;DHT22;5889;51.350;6.708;2023-07-31T07:57:38;17.90;99.90
11666;DHT22;5889;51.350;6.708;2023-07-31T08:00:06;17.90;99.90
11666;DHT22;5889;51.350;6.708;2023-07-31T08:02:37;17.90;99.90
11666;DHT22;5889;51.350;6.708;2023-07-31T08:05:05;18.00;99.90
11666;DHT22;5889;51.350;6.708;2023-07-31T08:07:32;18.00;99.90
11666;DHT22;5889;51.350;6.708;2023-07-31T08:09:58;18.00;99.90
11666;DHT22;5889;51.350;6.708;2023-07-31T08:12:25;18.10;99.90
11666;DHT22;5889;51.350;6.708;2023-07-31T08:14:52;18.10;99.90
11666;DHT22;5889;51.350;6.708;2023-07-31T08:17:19;18.10;99.90
11666;DHT22;5889;51.350;6.708;2023-07-31T08:19:48;18.00;99.90
11666;DHT22;5889;51.350;6.708;2023-07-31T08:22:15;18.00;99.90
11666;DHT22;5889;51.350;6.708;2023-07-31T08:24:42;18.00;99.90
11666;DHT22;5889;51.350;6.708;2023-07-31T08:27:09;18.00;99.90
11666;DHT22;5889;51.350;6.708;2023-07-31T08:29:37;17.90;99.90
11666;DHT22;5889;51.350;6.708;2023-07-31T08:32:04;17.90;99.90
11666;DHT22;5889;51.350;6.708;2023-07-31T08:34:31;18.00;99.90
11666;DHT22;5889;51.350;6.708;2023-07-31T08:36:59;18.00;99.90
11666;DHT22;5889;51.350;6.708;2023-07-31T08:39:26;18.00;99.90
11666;DHT22;5889;51.350;6.708;2023-07-31T08:41:58;18.00;99.90
11666;DHT22;5889;51.350;6.708;2023-07-31T08:44:25;17.90;99.90
11666;DHT22;5889;51.350;6.708;2023-07-31T08:46:52;17.90;99.90
11666;DHT22;5889;51.350;6.708;2023-07-31T08:49:20;17.90;99.90
11666;DHT22;5889;51.350;6.708;2023-07-31T08:51:49;17.90;99.90
11666;DHT22;5889;51.350;6.708;2023-07-31T08:54:18;17.90;99.90
11666;DHT22;5889;51.350;6.708;2023-07-31T08:56:45;17.90;99.90
11666;DHT22;5889;51.350;6.708;2023-07-31T08:59:14;17.90;99.90
11666;DHT22;5889;51.350;6.708;2023-07-31T09:01:45;17.90;99.90
11666;DHT22;5889;51.350;6.708;2023-07-31T09:04:14;17.90;99.90
11666;DHT22;5889;51.350;6.708;2023-07-31T09:06:42;17.90;99.90
11666;DHT22;5889;51.350;6.708;2023-07-31T09:09:10;17.90;99.90
11666;DHT22;5889;51.350;6.708;2023-07-31T09:11:39;17.90;99.90
11666;DHT22;5889;51.350;6.708;2023-07-31T09:14:07;17.90;99.90
11666;DHT22;5889;51.350;6.708;2023-07-31T09:16:35;17.90;99.90
11666;DHT22;5889;51.350;6.708;2023-07-31T09:19:02;17.90;99.90
11666;DHT22;5889;51.350;6.708;2023-07-31T09:21:30;17.90;99.90
11666;DHT22;5889;51.350;6.708;2023-07-31T09:23:57;18.00;99.90
11666;DHT22;5889;51.350;6.708;2023-07-31T09:26:31;18.00;99.90
11666;DHT22;5889;51.350;6.708;2023-07-31T09:29:01;18.00;99.90
11666;DHT22;5889;51.350;6.708;2023-07-31T09:31:49;18.00;99.90
11666;DHT22;5889;51.350;6.708;2023-07-31T09:34:16;18.10;99.90
11666;DHT22;5889;51.350;6.708;2023-07-31T09:36:45;18.10;99.90
11666;DHT22;5889;51.350;6.708;2023-07-31T09:39:13;18.20;99.90
11666;DHT22;5889;51.350;6.708;2023-07-31T09:41:43;18.20;99.90
11666;DHT22;5889;51.350;6.708;2023-07-31T09:44:11;18.30;99.90
11666;DHT22;5889;51.350;6.708;2023-07-31T09:46:41;18.30;99.90
11666;DHT22;5889;51.350;6.708;2023-07-31T09:49:08;18.40;99.90
11666;DHT22;5889;51.350;6.708;2023-07-31T09:51:36;18.30;99.90
11666;DHT22;5889;51.350;6.708;2023-07-31T09:54:09;18.30;99.90
11666;DHT22;5889;51.350;6.708;2023-07-31T09:56:41;18.30;99.90
11666;DHT22;5889;51.350;6.708;2023-07-31T09:59:12;18.40;99.90
11666;DHT22;5889;51.350;6.708;2023-07-31T10:01:40;18.30;99.90
11666;DHT22;5889;51.350;6.708;2023-07-31T10:04:08;18.30;99.90
11666;DHT22;5889;51.350;6.708;2023-07-31T10:06:37;18.30;99.90
11666;DHT22;5889;51.350;6.708;2023-07-31T10:09:06;18.30;99.90
11666;DHT22;5889;51.350;6.708;2023-07-31T10:11:37;18.30;99.90
11666;DHT22;5889;51.350;6.708;2023-07-31T10:14:05;18.40;99.90
11666;DHT22;5889;51.350;6.708;2023-07-31T10:16:37;18.40;99.90
11666;DHT22;5889;51.350;6.708;2023-07-31T10:19:05;18.30;99.90
11666;DHT22;5889;51.350;6.708;2023-07-31T10:21:34;18.40;99.90
11666;DHT22;5889;51.350;6.708;2023-07-31T10:24:04;18.40;99.90
11666;DHT22;5889;51.350;6.708;2023-07-31T10:26:34;18.30;99.90
11666;DHT22;5889;51.350;6.708;2023-07-31T10:29:02;18.30;99.90
11666;DHT22;5889;51.350;6.708;2023-07-31T10:31:30;18.40;99.90
11666;DHT22;5889;51.350;6.708;2023-07-31T10:33:58;18.40;99.90
11666;DHT22;5889;51.350;6.708;2023-07-31T10:36:26;18.50;99.90
11666;DHT22;5889;51.350;6.708;2023-07-31T10:38:55;18.60;99.90
11666;DHT22;5889;51.350;6.708;2023-07-31T10:41:29;18.70;99.90
11666;DHT22;5889;51.350;6.708;2023-07-31T10:43:58;18.90;99.90
11666;DHT22;5889;51.350;6.708;2023-07-31T10:46:27;19.00;99.90
11666;DHT22;5889;51.350;6.708;2023-07-31T10:49:00;19.10;99.90
11666;DHT22;5889;51.350;6.708;2023-07-31T10:51:33;19.10;99.90
11666;DHT22;5889;51.350;6.708;2023-07-31T10:54:11;19.10;99.90
11666;DHT22;5889;51.350;6.708;2023-07-31T10:56:38;19.20;99.90
11666;DHT22;5889;51.350;6.708;2023-07-31T10:59:05;19.30;99.90
11666;DHT22;5889;51.350;6.708;2023-07-31T11:01:50;19.30;99.90
11666;DHT22;5889;51.350;6.708;2023-07-31T11:04:24;19.30;99.90
11666;DHT22;5889;51.350;6.708;2023-07-31T11:06:57;19.30;99.90
11666;DHT22;5889;51.350;6.708;2023-07-31T11:09:27;19.20;99.90
11666;DHT22;5889;51.350;6.708;2023-07-31T11:11:54;19.30;99.90
11666;DHT22;5889;51.350;6.708;2023-07-31T11:14:22;19.40;99.90
11666;DHT22;5889;51.350;6.708;2023-07-31T11:16:50;19.40;99.90
11666;DHT22;5889;51.350;6.708;2023-07-31T11:19:22;19.40;99.90
11666;DHT22;5889;51.350;6.708;2023-07-31T11:21:51;19.40;99.90
11666;DHT22;5889;51.350;6.708;2023-07-31T11:24:18;19.40;99.90
11666;DHT22;5889;51.350;6.708;2023-07-31T11:26:50;19.40;99.90
11666;DHT22;5889;51.350;6.708;2023-07-31T11:29:20;19.50;99.90
11666;DHT22;5889;51.350;6.708;2023-07-31T11:31:47;19.60;99.90
11666;DHT22;5889;51.350;6.708;2023-07-31T11:34:14;19.60;99.90
11666;DHT22;5889;51.350;6.708;2023-07-31T11:36:54;19.60;99.90
11666;DHT22;5889;51.350;6.708;2023-07-31T11:39:21;19.60;99.90
11666;DHT22;5889;51.350;6.708;2023-07-31T11:41:48;19.50;99.90
11666;DHT22;5889;51.350;6.708;2023-07-31T11:44:15;19.60;99.90
11666;DHT22;5889;51.350;6.708;2023-07-31T11:46:42;19.60;99.90
11666;DHT22;5889;51.350;6.708;2023-07-31T11:49:09;19.60;99.90
11666;DHT22;5889;51.350;6.708;2023-07-31T11:51:36;19.60;99.90
11666;DHT22;5889;51.350;6.708;2023-07-31T11:54:05;19.60;99.90
11666;DHT22;5889;51.350;6.708;2023-07-31T11:56:32;19.60;99.90
11666;DHT22;5889;51.350;6.708;2023-07-31T11:59:00;19.60;99.90
11666;DHT22;5889;51.350;6.708;2023-07-31T12:01:29;19.60;99.90
11666;DHT22;5889;51.350;6.708;2023-07-31T12:03:57;19.60;99.90
11666;DHT22;5889;51.350;6.708;2023-07-31T12:06:32;19.60;99.90
11666;DHT22;5889;51.350;6.708;2023-07-31T12:09:02;19.60;99.90
11666;DHT22;5889;51.350;6.708;2023-07-31T12:11:31;19.60;99.90
11666;DHT22;5889;51.350;6.708;2023-07-31T12:13:58;19.60;99.90
11666;DHT22;5889;51.350;6.708;2023-07-31T12:16:26;19.60;99.90
11666;DHT22;5889;51.350;6.708;2023-07-31T12:18:53;19.50;99.90
11666;DHT22;5889;51.350;6.708;2023-07-31T12:21:21;19.50;99.90
11666;DHT22;5889;51.350;6.708;2023-07-31T12:23:47;19.50;99.90
11666;DHT22;5889;51.350;6.708;2023-07-31T12:26:15;19.60;99.90
11666;DHT22;5889;51.350;6.708;2023-07-31T12:28:45;19.60;99.90
11666;DHT22;5889;51.350;6.708;2023-07-31T12:31:13;19.70;99.90
11666;DHT22;5889;51.350;6.708;2023-07-31T12:33:41;19.70;99.90
11666;DHT22;5889;51.350;6.708;2023-07-31T12:36:09;19.70;99.90
11666;DHT22;5889;51.350;6.708;2023-07-31T12:38:37;19.60;99.90
11666;DHT22;5889;51.350;6.708;2023-07-31T12:41:04;19.60;99.90
11666;DHT22;5889;51.350;6.708;2023-07-31T12:43:32;19.50;99.90
11666;DHT22;5889;51.350;6.708;2023-07-31T12:46:00;19.40;99.90
11666;DHT22;5889;51.350;6.708;2023-07-31T12:48:27;19.30;99.90
11666;DHT22;5889;51.350;6.708;2023-07-31T12:50:54;19.20;99.90
11666;DHT22;5889;51.350;6.708;2023-07-31T12:53:21;19.20;99.90
11666;DHT22;5889;51.350;6.708;2023-07-31T12:55:48;19.30;99.90
11666;DHT22;5889;51.350;6.708;2023-07-31T12:58:15;19.30;99.90
11666;DHT22;5889;51.350;6.708;2023-07-31T13:00:42;19.40;99.90
11666;DHT22;5889;51.350;6.708;2023-07-31T13:03:11;19.40;99.90
11666;DHT22;5889;51.350;6.708;2023-07-31T13:05:38;19.50;99.90
11666;DHT22;5889;51.350;6.708;2023-07-31T13:08:05;19.60;99.90
11666;DHT22;5889;51.350;6.708;2023-07-31T13:10:35;19.70;99.90
11666;DHT22;5889;51.350;6.708;2023-07-31T13:13:02;19.70;99.90
11666;DHT22;5889;51.350;6.708;2023-07-31T13:15:29;19.80;99.90
11666;DHT22;5889;51.350;6.708;2023-07-31T13:17:56;19.80;99.90
11666;DHT22;5889;51.350;6.708;2023-07-31T13:23:21;20.00;99.90
11666;DHT22;5889;51.350;6.708;2023-07-31T13:25:50;19.90;99.90
11666;DHT22;5889;51.350;6.708;2023-07-31T13:28:17;19.90;99.90
11666;DHT22;5889;51.350;6.708;2023-07-31T13:30:46;20.00;99.90
11666;DHT22;5889;51.350;6.708;2023-07-31T13:33:22;20.10;99.90
11666;DHT22;5889;51.350;6.708;2023-07-31T13:35:49;20.30;99.90
11666;DHT22;5889;51.350;6.708;2023-07-31T13:38:16;20.30;99.90
11666;DHT22;5889;51.350;6.708;2023-07-31T13:40:44;20.30;99.90
11666;DHT22;5889;51.350;6.708;2023-07-31T13:43:11;20.30;99.90
11666;DHT22;5889;51.350;6.708;2023-07-31T13:45:38;20.50;99.90
11666;DHT22;5889;51.350;6.708;2023-07-31T13:48:05;20.60;99.90
11666;DHT22;5889;51.350;6.708;2023-07-31T13:50:33;20.60;99.90
11666;DHT22;5889;51.350;6.708;2023-07-31T13:53:00;20.60;99.90
11666;DHT22;5889;51.350;6.708;2023-07-31T13:55:27;20.60;99.90
11666;DHT22;5889;51.350;6.708;2023-07-31T13:57:56;20.60;99.90
11666;DHT22;5889;51.350;6.708;2023-07-31T14:00:23;20.60;99.90
11666;DHT22;5889;51.350;6.708;2023-07-31T14:02:50;20.60;99.90
11666;DHT22;5889;51.350;6.708;2023-07-31T14:05:16;20.60;99.90
11666;DHT22;5889;51.350;6.708;2023-07-31T14:07:43;20.70;99.90
11666;DHT22;5889;51.350;6.708;2023-07-31T14:10:10;20.60;99.90
11666;DHT22;5889;51.350;6.708;2023-07-31T14:12:37;20.60;99.90
11666;DHT22;5889;51.350;6.708;2023-07-31T14:15:07;20.60;99.90
11666;DHT22;5889;51.350;6.708;2023-07-31T14:17:34;20.60;99.90
11666;DHT22;5889;51.350;6.708;2023-07-31T14:20:01;20.50;99.90
11666;DHT22;5889;51.350;6.708;2023-07-31T14:22:28;20.50;99.90
11666;DHT22;5889;51.350;6.708;2023-07-31T14:24:56;20.50;99.90
11666;DHT22;5889;51.350;6.708;2023-07-31T14:27:22;20.40;99.90
11666;DHT22;5889;51.350;6.708;2023-07-31T14:29:49;20.40;99.90
11666;DHT22;5889;51.350;6.708;2023-07-31T14:32:18;20.30;99.90
11666;DHT22;5889;51.350;6.708;2023-07-31T14:34:45;20.40;99.90
11666;DHT22;5889;51.350;6.708;2023-07-31T14:37:11;20.30;99.90
11666;DHT22;5889;51.350;6.708;2023-07-31T14:39:38;20.40;99.90
11666;DHT22;5889;51.350;6.708;2023-07-31T14:42:06;20.30;99.90
11666;DHT22;5889;51.350;6.708;2023-07-31T14:44:33;20.30;99.90
11666;DHT22;5889;51.350;6.708;2023-07-31T14:46:59;20.30;99.90
11666;DHT22;5889;51.350;6.708;2023-07-31T14:49:28;20.30;99.90
11666;DHT22;5889;51.350;6.708;2023-07-31T14:51:55;20.20;99.90
11666;DHT22;5889;51.350;6.708;2023-07-31T14:54:22;20.20;99.90
11666;DHT22;5889;51.350;6.708;2023-07-31T14:56:49;20.20;99.90
11666;DHT22;5889;51.350;6.708;2023-07-31T14:59:15;20.20;99.90
11666;DHT22;5889;51.350;6.708;2023-07-31T15:01:42;20.10;99.90
11666;DHT22;5889;51.350;6.708;2023-07-31T15:04:09;20.10;99.90
11666;DHT22;5889;51.350;6.708;2023-07-31T15:06:38;20.10;99.90
11666;DHT22;5889;51.350;6.708;2023-07-31T15:09:05;20.20;99.90
11666;DHT22;5889;51.350;6.708;2023-07-31T15:11:32;20.20;99.90
11666;DHT22;5889;51.350;6.708;2023-07-31T15:13:59;20.20;99.90
11666;DHT22;5889;51.350;6.708;2023-07-31T15:16:26;20.20;99.90
11666;DHT22;5889;51.350;6.708;2023-07-31T15:18:54;20.20;99.90
11666;DHT22;5889;51.350;6.708;2023-07-31T15:21:21;20.30;99.90
11666;DHT22;5889;51.350;6.708;2023-07-31T15:23:49;20.30;99.90
11666;DHT22;5889;51.350;6.708;2023-07-31T15:26:16;20.30;99.90
11666;DHT22;5889;51.350;6.708;2023-07-31T15:28:47;20.30;99.90
11666;DHT22;5889;51.350;6.708;2023-07-31T15:31:15;20.30;99.90
11666;DHT22;5889;51.350;6.708;2023-07-31T15:33:42;20.40;99.90
11666;DHT22;5889;51.350;6.708;2023-07-31T15:36:09;20.40;99.90
11666;DHT22;5889;51.350;6.708;2023-07-31T15:38:36;20.30;99.90
11666;DHT22;5889;51.350;6.708;2023-07-31T15:41:05;20.40;99.90
11666;DHT22;5889;51.350;6.708;2023-07-31T15:43:32;20.40;99.90
11666;DHT22;5889;51.350;6.708;2023-07-31T15:45:59;20.30;99.90
11666;DHT22;5889;51.350;6.708;2023-07-31T15:48:26;20.30;99.90
11666;DHT22;5889;51.350;6.708;2023-07-31T15:50:53;20.20;99.90
11666;DHT22;5889;51.350;6.708;2023-07-31T15:53:19;20.10;99.90